createdAt,value
2018-12-12T00:00:22.570Z,6.30
2018-12-12T00:02:48.787Z,10.33
2018-12-12T00:05:15.107Z,6.30
2018-12-12T00:07:41.267Z,7.03
2018-12-12T00:10:10.458Z,12.00
2018-12-12T00:12:37.200Z,7.90
2018-12-12T00:15:04.724Z,5.90
2018-12-12T00:17:31.018Z,7.28
2018-12-12T00:19:57.309Z,7.30
2018-12-12T00:22:23.560Z,8.53
2018-12-12T00:24:49.673Z,7.20
2018-12-12T00:27:15.907Z,7.30
2018-12-12T00:29:42.030Z,8.60
2018-12-12T00:32:08.326Z,9.17
2018-12-12T00:34:34.481Z,11.00
2018-12-12T00:37:00.715Z,7.70
2018-12-12T00:39:26.950Z,7.50
2018-12-12T00:41:54.063Z,8.80
2018-12-12T00:44:20.346Z,7.33
2018-12-12T00:46:46.706Z,9.68
2018-12-12T00:49:12.946Z,8.60
2018-12-12T00:51:39.287Z,5.70
2018-12-12T00:54:05.840Z,7.72
2018-12-12T00:56:32.031Z,6.60
2018-12-12T00:58:58.163Z,6.33
2018-12-12T01:01:24.458Z,6.33
2018-12-12T01:03:50.545Z,7.23
2018-12-12T01:06:16.757Z,7.23
2018-12-12T01:08:43.110Z,7.50
2018-12-12T01:11:15.771Z,6.20
2018-12-12T01:13:41.864Z,13.23
2018-12-12T01:16:08.059Z,6.60
2018-12-12T01:18:34.308Z,10.15
2018-12-12T01:21:00.430Z,6.20
2018-12-12T01:23:26.537Z,7.47
2018-12-12T01:25:52.796Z,8.33
2018-12-12T01:28:18.885Z,7.27
2018-12-12T01:30:45.301Z,8.10
2018-12-12T01:33:11.459Z,6.13
2018-12-12T01:35:37.673Z,7.60
2018-12-12T01:38:03.863Z,9.53
2018-12-12T01:40:30.265Z,6.00
2018-12-12T01:42:56.393Z,6.10
2018-12-12T01:45:22.634Z,5.80
2018-12-12T01:47:48.785Z,11.55
2018-12-12T01:50:15.020Z,5.30
2018-12-12T01:52:41.105Z,9.03
2018-12-12T01:55:07.349Z,6.62
2018-12-12T01:57:33.600Z,6.33
2018-12-12T01:59:59.854Z,6.72
2018-12-12T02:02:26.077Z,6.97
2018-12-12T02:04:52.328Z,5.70
2018-12-12T02:07:18.996Z,6.20
2018-12-12T02:09:45.222Z,6.00
2018-12-12T02:12:12.320Z,5.77
2018-12-12T02:14:38.487Z,8.70
2018-12-12T02:17:04.635Z,6.35
2018-12-12T02:19:30.930Z,7.33
2018-12-12T02:21:57.947Z,9.43
2018-12-12T02:24:24.076Z,5.30
2018-12-12T02:26:50.197Z,6.03
2018-12-12T02:29:16.445Z,7.00
2018-12-12T02:31:42.601Z,6.08
2018-12-12T02:34:08.730Z,6.07
2018-12-12T02:36:34.870Z,8.87
2018-12-12T02:39:01.083Z,11.18
2018-12-12T02:41:27.206Z,6.30
2018-12-12T02:43:53.543Z,9.50
2018-12-12T02:46:19.988Z,7.90
2018-12-12T02:48:46.253Z,6.80
2018-12-12T02:51:19.408Z,7.83
2018-12-12T02:53:46.161Z,7.87
2018-12-12T02:56:12.380Z,10.10
2018-12-12T02:58:38.793Z,10.50
2018-12-12T03:01:05.002Z,10.00
2018-12-12T03:03:31.319Z,8.43
2018-12-12T03:05:57.546Z,8.37
2018-12-12T03:08:23.671Z,8.00
2018-12-12T03:10:49.898Z,12.63
2018-12-12T03:13:16.136Z,14.28
2018-12-12T03:15:42.352Z,10.40
2018-12-12T03:18:08.511Z,12.40
2018-12-12T03:20:34.848Z,12.65
2018-12-12T03:23:00.934Z,14.13
2018-12-12T03:25:27.030Z,10.03
2018-12-12T03:27:53.193Z,10.38
2018-12-12T03:30:19.429Z,13.33
2018-12-12T03:32:45.542Z,9.17
2018-12-12T03:35:11.811Z,11.37
2018-12-12T03:37:37.969Z,10.33
2018-12-12T03:40:05.216Z,10.10
2018-12-12T03:42:32.003Z,9.58
2018-12-12T03:44:58.130Z,13.43
2018-12-12T03:47:24.598Z,12.10
2018-12-12T03:49:51.773Z,12.77
2018-12-12T03:52:17.909Z,14.53
2018-12-12T03:54:44.099Z,10.00
2018-12-12T03:57:10.250Z,15.53
2018-12-12T03:59:36.453Z,8.83
2018-12-12T04:02:02.919Z,10.63
2018-12-12T04:04:29.282Z,11.23
2018-12-12T04:06:55.416Z,9.93
2018-12-12T04:09:21.545Z,13.00
2018-12-12T04:11:47.760Z,14.80
2018-12-12T04:14:14.070Z,10.97
2018-12-12T04:16:41.295Z,15.23
2018-12-12T04:19:07.634Z,13.43
2018-12-12T04:21:34.031Z,10.00
2018-12-12T04:24:00.300Z,11.65
2018-12-12T04:26:26.606Z,14.23
2018-12-12T04:28:52.770Z,9.47
2018-12-12T04:31:18.993Z,11.33
2018-12-12T04:33:45.182Z,10.18
2018-12-12T04:36:11.482Z,11.90
2018-12-12T04:38:37.634Z,11.53
2018-12-12T04:41:03.884Z,12.33
2018-12-12T04:43:31.039Z,12.17
2018-12-12T04:45:57.424Z,13.37
2018-12-12T04:48:23.593Z,14.20
2018-12-12T04:50:50.839Z,10.93
2018-12-12T04:53:17.898Z,12.17
2018-12-12T04:55:45.069Z,12.18
2018-12-12T04:58:12.012Z,10.70
2018-12-12T05:00:38.396Z,14.50
2018-12-12T05:03:05.115Z,15.23
2018-12-12T05:05:32.621Z,18.07
2018-12-12T05:07:58.727Z,17.98
2018-12-12T05:10:24.963Z,17.52
2018-12-12T05:12:51.241Z,16.83
2018-12-12T05:15:18.465Z,18.83
2018-12-12T05:17:44.660Z,16.60
2018-12-12T05:20:10.837Z,17.80
2018-12-12T05:22:36.965Z,17.43
2018-12-12T05:25:03.786Z,16.52
2018-12-12T05:27:31.933Z,19.50
2018-12-12T05:29:59.998Z,16.90
2018-12-12T05:32:26.573Z,19.83
2018-12-12T05:34:52.733Z,16.02
2018-12-12T05:37:18.955Z,17.77
2018-12-12T05:39:52.454Z,17.93
2018-12-12T05:42:19.724Z,17.20
2018-12-12T05:44:46.017Z,19.53
2018-12-12T05:47:12.321Z,15.07
2018-12-12T05:49:39.478Z,16.53
2018-12-12T05:52:05.757Z,16.03
2018-12-12T05:54:31.869Z,18.23
2018-12-12T05:56:58.573Z,14.83
2018-12-12T05:59:27.573Z,13.67
2018-12-12T06:01:54.033Z,12.67
2018-12-12T06:04:20.429Z,14.38
2018-12-12T06:06:46.584Z,14.23
2018-12-12T06:09:13.181Z,16.40
2018-12-12T06:11:39.446Z,13.50
2018-12-12T06:14:05.657Z,17.10
2018-12-12T06:16:31.965Z,18.60
2018-12-12T06:18:58.164Z,15.03
2018-12-12T06:21:24.393Z,11.53
2018-12-12T06:23:50.623Z,12.90
2018-12-12T06:26:16.910Z,14.03
2018-12-12T06:28:43.985Z,15.30
2018-12-12T06:31:10.368Z,17.80
2018-12-12T06:33:36.628Z,14.70
2018-12-12T06:36:02.912Z,15.37
2018-12-12T06:38:29.910Z,16.00
2018-12-12T06:40:57.794Z,14.73
2018-12-12T06:43:24.079Z,19.03
2018-12-12T06:45:50.293Z,13.83
2018-12-12T06:48:16.458Z,16.73
2018-12-12T06:50:42.606Z,15.03
2018-12-12T06:53:08.907Z,13.32
2018-12-12T06:55:35.171Z,16.23
2018-12-12T06:58:01.565Z,12.93
2018-12-12T07:00:27.938Z,15.90
2018-12-12T07:02:54.231Z,14.47
2018-12-12T07:05:20.437Z,16.17
2018-12-12T07:07:46.716Z,16.20
2018-12-12T07:10:13.121Z,12.13
2018-12-12T07:12:40.170Z,16.93
2018-12-12T07:15:06.497Z,15.80
2018-12-12T07:17:32.893Z,14.00
2018-12-12T07:19:59.301Z,19.25
2018-12-12T07:22:25.547Z,15.13
2018-12-12T07:24:51.815Z,14.73
2018-12-12T07:27:18.023Z,16.53
2018-12-12T07:29:44.691Z,14.80
2018-12-12T07:32:11.225Z,14.67
2018-12-12T07:34:37.386Z,16.87
2018-12-12T07:37:04.494Z,12.83
2018-12-12T07:39:30.641Z,16.03
2018-12-12T07:42:00.857Z,12.30
2018-12-12T07:44:27.088Z,10.37
2018-12-12T07:46:53.817Z,11.90
2018-12-12T07:49:20.872Z,15.43
2018-12-12T07:51:47.123Z,9.30
2018-12-12T07:54:13.225Z,11.17
2018-12-12T07:56:39.426Z,11.65
2018-12-12T07:59:05.708Z,11.07
2018-12-12T08:01:31.865Z,11.73
2018-12-12T08:03:58.094Z,10.43
2018-12-12T08:06:24.382Z,12.37
2018-12-12T08:08:50.701Z,13.70
2018-12-12T08:11:16.882Z,9.93
2018-12-12T08:13:43.129Z,11.87
2018-12-12T08:16:09.338Z,14.10
2018-12-12T08:18:35.613Z,14.30
2018-12-12T08:21:02.048Z,11.67
2018-12-12T08:23:28.973Z,9.03
2018-12-12T08:25:55.378Z,11.08
2018-12-12T08:28:22.451Z,13.07
2018-12-12T08:30:48.809Z,9.03
2018-12-12T08:33:15.111Z,10.10
2018-12-12T08:35:41.358Z,10.20
2018-12-12T08:38:07.454Z,10.53
2018-12-12T08:40:33.609Z,9.93
2018-12-12T08:42:59.899Z,11.30
2018-12-12T08:45:26.025Z,9.43
2018-12-12T08:47:52.977Z,9.73
2018-12-12T08:50:19.198Z,12.73
2018-12-12T08:52:45.536Z,11.20
2018-12-12T08:55:17.440Z,10.73
2018-12-12T08:57:40.001Z,10.53
2018-12-12T09:00:06.805Z,11.60
2018-12-12T09:02:33.151Z,12.53
2018-12-12T09:04:59.307Z,10.57
2018-12-12T09:07:25.435Z,16.80
2018-12-12T09:09:51.700Z,11.28
2018-12-12T09:12:17.920Z,7.97
2018-12-12T09:14:44.064Z,8.77
2018-12-12T09:17:10.285Z,8.63
2018-12-12T09:19:36.477Z,7.43
2018-12-12T09:22:02.799Z,8.83
2018-12-12T09:24:28.893Z,11.37
2018-12-12T09:26:54.987Z,8.57
2018-12-12T09:29:21.131Z,10.60
2018-12-12T09:31:48.231Z,11.25
2018-12-12T09:34:14.441Z,10.87
2018-12-12T09:36:40.549Z,13.53
2018-12-12T09:39:07.718Z,13.38
2018-12-12T09:41:34.096Z,14.90
2018-12-12T09:44:00.336Z,11.07
2018-12-12T09:46:26.485Z,9.30
2018-12-12T09:48:52.676Z,11.63
2018-12-12T09:51:18.943Z,11.97
2018-12-12T09:53:45.120Z,12.10
2018-12-12T09:56:11.333Z,12.47
2018-12-12T09:58:37.559Z,12.47
2018-12-12T10:01:03.958Z,11.00
2018-12-12T10:03:31.292Z,12.90
2018-12-12T10:05:57.789Z,15.20
2018-12-12T10:08:24.263Z,12.43
2018-12-12T10:10:50.475Z,14.15
2018-12-12T10:13:16.863Z,14.60
2018-12-12T10:15:43.032Z,14.38
2018-12-12T10:18:09.374Z,16.70
2018-12-12T10:20:35.666Z,11.50
2018-12-12T10:23:01.761Z,14.60
2018-12-12T10:25:27.979Z,15.78
2018-12-12T10:27:54.110Z,14.93
2018-12-12T10:30:20.304Z,16.13
2018-12-12T10:32:46.538Z,15.65
2018-12-12T10:35:12.772Z,16.00
2018-12-12T10:37:38.900Z,16.47
2018-12-12T10:40:05.383Z,14.18
2018-12-12T10:42:31.550Z,13.70
2018-12-12T10:44:57.832Z,16.43
2018-12-12T10:47:23.975Z,15.03
2018-12-12T10:49:50.235Z,15.23
2018-12-12T10:52:16.649Z,13.25
2018-12-12T10:54:43.308Z,14.10
2018-12-12T10:57:09.654Z,15.67
2018-12-12T10:59:35.782Z,15.28
2018-12-12T11:05:11.460Z,13.57
2018-12-12T11:07:37.698Z,17.17
2018-12-12T11:10:04.399Z,11.73
2018-12-12T11:12:31.406Z,13.70
2018-12-12T11:14:57.699Z,12.80
2018-12-12T11:17:24.006Z,10.90
2018-12-12T11:19:50.891Z,13.93
2018-12-12T11:22:17.079Z,11.50
2018-12-12T11:24:43.383Z,13.50
2018-12-12T11:27:09.601Z,13.80
2018-12-12T11:29:43.751Z,12.50
2018-12-12T11:32:10.093Z,11.97
2018-12-12T11:34:36.394Z,12.23
2018-12-12T11:37:03.664Z,15.77
2018-12-12T11:39:29.766Z,16.50
2018-12-12T11:41:55.876Z,13.80
2018-12-12T11:44:21.962Z,14.50
2018-12-12T11:46:48.177Z,12.90
2018-12-12T11:49:14.429Z,14.27
2018-12-12T11:51:42.173Z,13.45
2018-12-12T11:54:08.400Z,13.67
2018-12-12T11:56:34.661Z,15.67
2018-12-12T11:59:00.917Z,13.23
2018-12-12T12:01:27.148Z,11.00
2018-12-12T12:03:56.766Z,10.40
2018-12-12T12:06:22.599Z,12.03
2018-12-12T12:08:49.584Z,12.53
2018-12-12T12:11:15.807Z,10.10
2018-12-12T12:13:41.938Z,14.20
2018-12-12T12:16:08.185Z,11.00
2018-12-12T12:18:34.516Z,18.77
2018-12-12T12:21:00.825Z,16.17
2018-12-12T12:23:27.056Z,18.87
2018-12-12T12:25:53.253Z,20.27
2018-12-12T12:28:19.464Z,9.53
2018-12-12T12:30:45.537Z,8.73
2018-12-12T12:33:11.697Z,15.40
2018-12-12T12:35:37.804Z,11.80
2018-12-12T12:38:04.045Z,15.00
2018-12-12T12:40:30.195Z,17.95
2018-12-12T12:42:56.429Z,12.50
2018-12-12T12:45:23.027Z,14.40
2018-12-12T12:47:49.211Z,16.77
2018-12-12T12:50:15.400Z,11.10
2018-12-12T12:52:42.315Z,15.53
2018-12-12T12:55:09.597Z,12.47
2018-12-12T12:57:35.699Z,13.50
2018-12-12T13:00:03.114Z,12.17
2018-12-12T13:02:29.301Z,15.28
2018-12-12T13:04:55.454Z,15.53
2018-12-12T13:07:21.782Z,14.90
2018-12-12T13:09:48.934Z,16.30
2018-12-12T13:12:15.156Z,13.93
2018-12-12T13:14:41.406Z,15.43
2018-12-12T13:17:07.578Z,16.63
2018-12-12T13:19:34.477Z,18.17
2018-12-12T13:22:00.722Z,17.40
2018-12-12T13:24:26.930Z,15.17
2018-12-12T13:26:53.965Z,18.20
2018-12-12T13:29:20.503Z,16.30
2018-12-12T13:31:46.799Z,18.17
2018-12-12T13:34:16.260Z,15.77
2018-12-12T13:36:41.145Z,15.10
2018-12-12T13:39:08.161Z,18.57
2018-12-12T13:41:34.623Z,16.15
2018-12-12T13:44:01.067Z,16.43
2018-12-12T13:46:27.286Z,16.42
2018-12-12T13:49:00.639Z,18.60
2018-12-12T13:51:27.741Z,25.30
2018-12-12T13:53:53.928Z,18.97
2018-12-12T13:56:20.174Z,17.95
2018-12-12T13:58:47.278Z,18.63
2018-12-12T14:01:14.626Z,15.67
2018-12-12T14:03:40.911Z,18.55
2018-12-12T14:06:07.144Z,16.57
2018-12-12T14:08:33.431Z,17.67
2018-12-12T14:10:59.755Z,27.60
2018-12-12T14:13:25.923Z,17.07
2018-12-12T14:15:52.078Z,17.67
2018-12-12T14:18:18.225Z,26.20
2018-12-12T14:20:45.279Z,21.20
2018-12-12T14:23:11.470Z,17.80
2018-12-12T14:25:37.623Z,19.17
2018-12-12T14:28:03.817Z,15.80
2018-12-12T14:30:30.174Z,20.27
2018-12-12T14:32:56.402Z,17.95
2018-12-12T14:35:22.867Z,18.20
2018-12-12T14:37:49.000Z,21.03
2018-12-12T14:40:15.241Z,22.77
2018-12-12T14:42:41.398Z,21.40
2018-12-12T14:45:08.435Z,16.17
2018-12-12T14:47:34.533Z,20.40
2018-12-12T14:50:00.731Z,18.87
2018-12-12T14:52:29.487Z,20.60
2018-12-12T14:54:55.659Z,18.53
2018-12-12T14:57:22.069Z,18.47
2018-12-12T14:59:49.293Z,19.50
2018-12-12T15:02:15.552Z,26.80
2018-12-12T15:04:42.972Z,19.43
2018-12-12T15:07:11.057Z,23.70
2018-12-12T15:09:38.472Z,19.80
2018-12-12T15:12:05.132Z,20.52
2018-12-12T15:14:32.974Z,21.30
2018-12-12T15:16:59.415Z,19.57
2018-12-12T15:19:29.568Z,22.15
2018-12-12T15:21:57.213Z,25.50
2018-12-12T15:24:25.314Z,20.62
2018-12-12T15:26:51.690Z,25.03
2018-12-12T15:29:18.109Z,23.38
2018-12-12T15:34:48.671Z,28.60
2018-12-12T15:37:18.538Z,21.07
2018-12-12T15:42:45.993Z,21.33
2018-12-12T15:45:27.022Z,22.90
2018-12-12T15:47:56.936Z,23.73
2018-12-12T15:50:50.654Z,26.50
2018-12-12T15:59:40.538Z,21.03
2018-12-12T16:11:26.425Z,25.37
2018-12-12T16:14:20.712Z,27.33
2018-12-12T16:23:14.771Z,26.20
2018-12-12T16:25:58.966Z,25.80
2018-12-12T16:31:33.643Z,27.73
2018-12-12T16:37:06.795Z,27.87
2018-12-12T16:48:49.696Z,27.67
2018-12-12T16:54:27.539Z,23.50
2018-12-12T16:56:58.706Z,24.40
2018-12-12T16:59:52.875Z,21.60
2018-12-12T17:05:07.905Z,26.13
2018-12-12T17:07:34.036Z,23.22
2018-12-12T17:10:01.210Z,23.77
2018-12-12T17:12:27.429Z,27.10
2018-12-12T17:14:53.534Z,22.97
2018-12-12T17:17:20.483Z,22.33
2018-12-12T17:19:47.665Z,29.97
2018-12-12T17:22:13.832Z,22.30
2018-12-12T17:24:40.091Z,27.30
2018-12-12T17:27:07.458Z,30.30
2018-12-12T17:29:33.588Z,28.80
2018-12-12T17:31:59.808Z,29.20
2018-12-12T17:34:26.919Z,29.48
2018-12-12T17:36:53.134Z,29.63
2018-12-12T17:39:21.278Z,34.70
2018-12-12T17:41:49.086Z,30.45
2018-12-12T17:44:15.242Z,29.32
2018-12-12T17:46:42.631Z,30.20
2018-12-12T17:49:09.645Z,29.20
2018-12-12T17:51:35.868Z,30.87
2018-12-12T17:54:03.228Z,33.40
2018-12-12T17:56:29.349Z,27.73
2018-12-12T17:58:56.297Z,29.17
2018-12-12T18:01:22.650Z,28.87
2018-12-12T18:03:48.954Z,32.43
2018-12-12T18:06:15.180Z,34.13
2018-12-12T18:08:41.313Z,36.83
2018-12-12T18:11:08.419Z,35.00
2018-12-12T18:13:34.510Z,34.23
2018-12-12T18:16:00.616Z,38.42
2018-12-12T18:18:27.024Z,36.37
2018-12-12T18:20:54.258Z,33.33
2018-12-12T18:23:21.181Z,35.80
2018-12-12T18:25:49.368Z,35.57
2018-12-12T18:28:16.516Z,38.10
2018-12-12T18:30:42.612Z,35.50
2018-12-12T18:33:08.766Z,37.60
2018-12-12T18:35:35.189Z,40.13
2018-12-12T18:38:02.246Z,34.85
2018-12-12T18:40:28.394Z,36.17
2018-12-12T18:42:54.531Z,33.83
2018-12-12T18:45:20.728Z,35.57
2018-12-12T18:47:47.862Z,32.78
2018-12-12T18:50:14.136Z,38.03
2018-12-12T18:52:40.444Z,36.67
2018-12-12T18:55:06.875Z,36.43
2018-12-12T18:57:33.040Z,35.90
2018-12-12T18:59:59.531Z,37.03
2018-12-12T19:02:25.741Z,37.37
2018-12-12T19:04:51.981Z,39.70
2018-12-12T19:07:18.344Z,36.23
2018-12-12T19:09:44.624Z,38.53
2018-12-12T19:12:11.816Z,42.93
2018-12-12T19:14:41.022Z,35.93
2018-12-12T19:17:07.169Z,36.50
2018-12-12T19:19:33.293Z,36.73
2018-12-12T19:21:59.584Z,39.65
2018-12-12T19:24:25.733Z,38.47
2018-12-12T19:26:52.001Z,35.20
2018-12-12T19:29:18.143Z,37.30
2018-12-12T19:31:44.494Z,36.20
2018-12-12T19:34:10.669Z,36.33
2018-12-12T19:36:36.817Z,39.33
2018-12-12T19:39:06.058Z,34.00
2018-12-12T19:41:32.534Z,35.40
2018-12-12T19:43:58.967Z,36.73
2018-12-12T19:46:25.335Z,33.87
2018-12-12T19:48:51.480Z,41.43
2018-12-12T19:51:17.861Z,35.10
2018-12-12T19:53:44.075Z,35.20
2018-12-12T19:56:10.410Z,37.03
2018-12-12T19:58:36.681Z,37.53
2018-12-12T20:01:03.054Z,35.90
2018-12-12T20:03:29.435Z,36.43
2018-12-12T20:05:55.669Z,38.38
2018-12-12T20:08:21.998Z,38.43
2018-12-12T20:10:48.275Z,37.13
2018-12-12T20:13:14.586Z,39.70
2018-12-12T20:15:43.786Z,41.20
2018-12-12T20:18:10.165Z,35.60
2018-12-12T20:20:36.509Z,33.08
2018-12-12T20:23:02.824Z,36.07
2018-12-12T20:25:28.957Z,36.20
2018-12-12T20:27:55.128Z,33.97
2018-12-12T20:30:21.451Z,40.55
2018-12-12T20:32:47.746Z,37.40
2018-12-12T20:35:14.191Z,37.70
2018-12-12T20:37:40.361Z,38.90
2018-12-12T20:40:06.802Z,43.20
2018-12-12T20:42:33.188Z,38.33
2018-12-12T20:44:59.460Z,40.03
2018-12-12T20:47:25.662Z,36.47
2018-12-12T20:49:51.789Z,39.27
2018-12-12T20:52:17.940Z,35.83
2018-12-12T20:54:44.119Z,39.20
2018-12-12T21:00:06.619Z,37.67
2018-12-12T21:02:33.021Z,40.67
2018-12-12T21:04:59.245Z,34.77
2018-12-12T21:07:25.391Z,44.77
2018-12-12T21:09:51.512Z,38.37
2018-12-12T21:12:17.917Z,38.65
2018-12-12T21:14:44.820Z,41.20
2018-12-12T21:17:10.967Z,39.13
2018-12-12T21:19:38.252Z,33.53
2018-12-12T21:22:11.882Z,40.97
2018-12-12T21:24:38.149Z,33.27
2018-12-12T21:27:04.281Z,38.20
2018-12-12T21:29:30.843Z,33.67
2018-12-12T21:31:56.982Z,35.43
2018-12-12T21:34:23.126Z,31.90
2018-12-12T21:36:49.331Z,34.03
2018-12-12T21:39:22.677Z,29.47
2018-12-12T21:41:48.841Z,33.23
2018-12-12T21:44:15.134Z,28.60
2018-12-12T21:46:41.254Z,27.50
2018-12-12T21:49:07.512Z,27.77
2018-12-12T21:51:33.612Z,28.47
2018-12-12T21:53:59.731Z,28.98
2018-12-12T21:56:25.929Z,30.07
2018-12-12T21:58:52.267Z,34.00
2018-12-12T22:01:19.113Z,35.23
2018-12-12T22:03:45.305Z,34.43
2018-12-12T22:06:11.555Z,36.47
2018-12-12T22:08:37.717Z,31.70
2018-12-12T22:11:04.058Z,33.23
2018-12-12T22:13:30.382Z,33.28
2018-12-12T22:15:57.469Z,29.43
2018-12-12T22:18:23.658Z,38.83
2018-12-12T22:20:49.785Z,30.23
2018-12-12T22:23:16.989Z,30.45
2018-12-12T22:25:43.123Z,30.63
2018-12-12T22:28:09.297Z,28.80
2018-12-12T22:30:35.518Z,35.78
2018-12-12T22:33:01.640Z,31.80
2018-12-12T22:35:28.284Z,37.87
2018-12-12T22:37:54.641Z,35.13
2018-12-12T22:40:20.925Z,30.50
2018-12-12T22:42:47.069Z,36.00
2018-12-12T22:45:13.227Z,39.92
2018-12-12T22:47:39.347Z,34.83
2018-12-12T22:50:05.773Z,32.63
2018-12-12T22:52:31.902Z,34.97
2018-12-12T22:54:58.045Z,37.77
2018-12-12T22:57:24.170Z,38.93
2018-12-12T22:59:50.447Z,35.08
2018-12-12T23:02:16.610Z,36.80
2018-12-12T23:04:42.815Z,41.50
2018-12-12T23:07:08.940Z,42.53
2018-12-12T23:09:35.116Z,43.00
2018-12-12T23:12:01.635Z,42.57
2018-12-12T23:14:27.880Z,39.50
2018-12-12T23:16:54.041Z,33.97
2018-12-12T23:19:20.185Z,38.33
2018-12-12T23:21:46.418Z,39.95
2018-12-12T23:24:12.729Z,35.20
2018-12-12T23:26:38.871Z,38.42
2018-12-12T23:29:05.052Z,41.37
2018-12-12T23:31:31.261Z,41.87
2018-12-12T23:33:57.520Z,35.50
2018-12-12T23:36:26.885Z,38.50
2018-12-12T23:38:52.026Z,35.30
2018-12-12T23:41:18.242Z,35.67
2018-12-12T23:43:44.397Z,41.68
2018-12-12T23:46:10.638Z,37.97
2018-12-12T23:48:36.759Z,44.13
2018-12-12T23:51:02.905Z,36.30
2018-12-12T23:53:28.996Z,43.10
2018-12-12T23:55:55.199Z,39.10
2018-12-12T23:58:21.389Z,34.18
